sensor_id;sensor_type;location;lat;lon;timestamp;temperature;humidity
8892;DHT22;4482;54.332;10.118;2022-07-10T00:00:28;13.00;99.90
8892;DHT22;4482;54.332;10.118;2022-07-10T00:02:56;12.90;99.90
8892;DHT22;4482;54.332;10.118;2022-07-10T00:05:24;12.90;99.90
8892;DHT22;4482;54.332;10.118;2022-07-10T00:07:52;12.90;99.90
8892;DHT22;4482;54.332;10.118;2022-07-10T00:10:20;12.80;99.90
8892;DHT22;4482;54.332;10.118;2022-07-10T00:12:48;12.90;99.90
8892;DHT22;4482;54.332;10.118;2022-07-10T00:15:16;12.90;99.90
8892;DHT22;4482;54.332;10.118;2022-07-10T00:17:44;12.90;99.90
8892;DHT22;4482;54.332;10.118;2022-07-10T00:20:12;12.90;99.90
8892;DHT22;4482;54.332;10.118;2022-07-10T00:22:40;12.90;99.90
8892;DHT22;4482;54.332;10.118;2022-07-10T00:25:11;12.90;99.90
8892;DHT22;4482;54.332;10.118;2022-07-10T00:27:38;12.90;99.90
8892;DHT22;4482;54.332;10.118;2022-07-10T00:30:06;12.80;99.90
8892;DHT22;4482;54.332;10.118;2022-07-10T00:32:34;12.80;99.90
8892;DHT22;4482;54.332;10.118;2022-07-10T00:35:00;12.70;99.90
8892;DHT22;4482;54.332;10.118;2022-07-10T00:37:28;12.70;99.90
8892;DHT22;4482;54.332;10.118;2022-07-10T00:39:55;12.70;99.90
8892;DHT22;4482;54.332;10.118;2022-07-10T00:42:23;12.70;99.90
8892;DHT22;4482;54.332;10.118;2022-07-10T00:44:50;12.70;99.90
8892;DHT22;4482;54.332;10.118;2022-07-10T00:47:17;12.70;99.90
8892;DHT22;4482;54.332;10.118;2022-07-10T00:49:45;12.70;99.90
8892;DHT22;4482;54.332;10.118;2022-07-10T00:52:13;12.80;99.90
8892;DHT22;4482;54.332;10.118;2022-07-10T00:54:43;12.80;99.90
8892;DHT22;4482;54.332;10.118;2022-07-10T00:57:12;12.80;99.90
8892;DHT22;4482;54.332;10.118;2022-07-10T00:59:42;12.80;99.90
8892;DHT22;4482;54.332;10.118;2022-07-10T01:02:10;12.70;99.90
8892;DHT22;4482;54.332;10.118;2022-07-10T01:04:37;12.70;99.90
8892;DHT22;4482;54.332;10.118;2022-07-10T01:07:05;12.80;99.90
8892;DHT22;4482;54.332;10.118;2022-07-10T01:09:32;12.80;99.90
8892;DHT22;4482;54.332;10.118;2022-07-10T01:12:01;12.80;99.90
8892;DHT22;4482;54.332;10.118;2022-07-10T01:14:28;12.80;99.90
8892;DHT22;4482;54.332;10.118;2022-07-10T01:16:57;12.90;99.90
8892;DHT22;4482;54.332;10.118;2022-07-10T01:19:24;12.90;99.90
8892;DHT22;4482;54.332;10.118;2022-07-10T01:21:52;12.90;99.90
8892;DHT22;4482;54.332;10.118;2022-07-10T01:24:19;13.00;99.90
8892;DHT22;4482;54.332;10.118;2022-07-10T01:26:46;13.00;99.90
8892;DHT22;4482;54.332;10.118;2022-07-10T01:29:13;13.00;99.90
8892;DHT22;4482;54.332;10.118;2022-07-10T01:31:40;13.00;99.90
8892;DHT22;4482;54.332;10.118;2022-07-10T01:34:08;13.10;99.90
8892;DHT22;4482;54.332;10.118;2022-07-10T01:36:36;13.10;99.90
8892;DHT22;4482;54.332;10.118;2022-07-10T01:39:06;13.10;99.90
8892;DHT22;4482;54.332;10.118;2022-07-10T01:41:33;13.10;99.90
8892;DHT22;4482;54.332;10.118;2022-07-10T01:44:00;13.10;99.90
8892;DHT22;4482;54.332;10.118;2022-07-10T01:46:27;13.10;99.90
8892;DHT22;4482;54.332;10.118;2022-07-10T01:48:54;13.10;99.90
8892;DHT22;4482;54.332;10.118;2022-07-10T01:51:21;13.20;99.90
8892;DHT22;4482;54.332;10.118;2022-07-10T01:53:48;13.10;99.90
8892;DHT22;4482;54.332;10.118;2022-07-10T01:56:16;13.20;99.90
8892;DHT22;4482;54.332;10.118;2022-07-10T01:58:43;13.20;99.90
8892;DHT22;4482;54.332;10.118;2022-07-10T02:01:12;13.20;99.90
8892;DHT22;4482;54.332;10.118;2022-07-10T02:03:39;13.20;99.90
8892;DHT22;4482;54.332;10.118;2022-07-10T02:06:23;13.20;99.90
8892;DHT22;4482;54.332;10.118;2022-07-10T02:08:50;13.20;99.90
8892;DHT22;4482;54.332;10.118;2022-07-10T02:11:18;13.20;99.90
8892;DHT22;4482;54.332;10.118;2022-07-10T02:13:45;13.20;99.90
8892;DHT22;4482;54.332;10.118;2022-07-10T02:16:12;13.10;99.90
8892;DHT22;4482;54.332;10.118;2022-07-10T02:18:39;13.10;99.90
8892;DHT22;4482;54.332;10.118;2022-07-10T02:21:06;13.10;99.90
8892;DHT22;4482;54.332;10.118;2022-07-10T02:23:34;13.00;99.90
8892;DHT22;4482;54.332;10.118;2022-07-10T02:26:01;13.00;99.90
8892;DHT22;4482;54.332;10.118;2022-07-10T02:28:29;13.00;99.90
8892;DHT22;4482;54.332;10.118;2022-07-10T02:30:56;13.00;99.90
8892;DHT22;4482;54.332;10.118;2022-07-10T02:33:23;13.00;99.90
8892;DHT22;4482;54.332;10.118;2022-07-10T02:35:50;13.00;99.90
8892;DHT22;4482;54.332;10.118;2022-07-10T02:38:17;13.00;99.90
8892;DHT22;4482;54.332;10.118;2022-07-10T02:40:44;13.00;99.90
8892;DHT22;4482;54.332;10.118;2022-07-10T02:43:11;13.00;99.90
8892;DHT22;4482;54.332;10.118;2022-07-10T02:45:39;13.10;99.90
8892;DHT22;4482;54.332;10.118;2022-07-10T02:48:06;13.10;99.90
8892;DHT22;4482;54.332;10.118;2022-07-10T02:50:33;13.10;99.90
8892;DHT22;4482;54.332;10.118;2022-07-10T02:53:00;13.10;99.90
8892;DHT22;4482;54.332;10.118;2022-07-10T02:55:28;13.10;99.90
8892;DHT22;4482;54.332;10.118;2022-07-10T02:57:57;13.10;99.90
8892;DHT22;4482;54.332;10.118;2022-07-10T03:00:24;13.10;99.90
8892;DHT22;4482;54.332;10.118;2022-07-10T03:02:52;13.10;99.90
8892;DHT22;4482;54.332;10.118;2022-07-10T03:05:19;13.10;99.90
8892;DHT22;4482;54.332;10.118;2022-07-10T03:07:46;13.10;99.90
8892;DHT22;4482;54.332;10.118;2022-07-10T03:10:13;13.10;99.90
8892;DHT22;4482;54.332;10.118;2022-07-10T03:12:40;13.10;99.90
8892;DHT22;4482;54.332;10.118;2022-07-10T03:15:07;13.00;99.90
8892;DHT22;4482;54.332;10.118;2022-07-10T03:17:34;13.00;99.90
8892;DHT22;4482;54.332;10.118;2022-07-10T03:20:03;13.00;99.90
8892;DHT22;4482;54.332;10.118;2022-07-10T03:22:30;13.00;99.90
8892;DHT22;4482;54.332;10.118;2022-07-10T03:24:58;13.00;99.90
8892;DHT22;4482;54.332;10.118;2022-07-10T03:27:25;13.00;99.90
8892;DHT22;4482;54.332;10.118;2022-07-10T03:29:52;13.10;99.90
8892;DHT22;4482;54.332;10.118;2022-07-10T03:32:18;13.10;99.90
8892;DHT22;4482;54.332;10.118;2022-07-10T03:34:45;13.10;99.90
8892;DHT22;4482;54.332;10.118;2022-07-10T03:37:14;13.10;99.90
8892;DHT22;4482;54.332;10.118;2022-07-10T03:39:40;13.10;99.90
8892;DHT22;4482;54.332;10.118;2022-07-10T03:42:07;13.10;99.90
8892;DHT22;4482;54.332;10.118;2022-07-10T03:44:34;13.10;99.90
8892;DHT22;4482;54.332;10.118;2022-07-10T03:47:01;13.10;99.90
8892;DHT22;4482;54.332;10.118;2022-07-10T03:49:28;13.20;99.90
8892;DHT22;4482;54.332;10.118;2022-07-10T03:51:58;13.20;99.90
8892;DHT22;4482;54.332;10.118;2022-07-10T03:54:27;13.20;99.90
8892;DHT22;4482;54.332;10.118;2022-07-10T03:56:53;13.10;99.90
8892;DHT22;4482;54.332;10.118;2022-07-10T03:59:38;13.10;99.90
8892;DHT22;4482;54.332;10.118;2022-07-10T04:02:05;13.10;99.90
8892;DHT22;4482;54.332;10.118;2022-07-10T04:04:32;13.10;99.90
8892;DHT22;4482;54.332;10.118;2022-07-10T04:06:58;13.00;99.90
8892;DHT22;4482;54.332;10.118;2022-07-10T04:09:27;13.00;99.90
8892;DHT22;4482;54.332;10.118;2022-07-10T04:11:53;12.90;99.90
8892;DHT22;4482;54.332;10.118;2022-07-10T04:14:20;12.80;99.90
8892;DHT22;4482;54.332;10.118;2022-07-10T04:16:47;12.80;99.90
8892;DHT22;4482;54.332;10.118;2022-07-10T04:19:14;12.80;99.90
8892;DHT22;4482;54.332;10.118;2022-07-10T04:21:41;12.80;99.90
8892;DHT22;4482;54.332;10.118;2022-07-10T04:24:08;12.80;99.90
8892;DHT22;4482;54.332;10.118;2022-07-10T04:26:36;12.80;99.90
8892;DHT22;4482;54.332;10.118;2022-07-10T04:29:03;12.80;99.90
8892;DHT22;4482;54.332;10.118;2022-07-10T04:31:30;12.70;99.90
8892;DHT22;4482;54.332;10.118;2022-07-10T04:33:56;12.80;99.90
8892;DHT22;4482;54.332;10.118;2022-07-10T04:36:23;12.80;99.90
8892;DHT22;4482;54.332;10.118;2022-07-10T04:38:50;12.90;99.90
8892;DHT22;4482;54.332;10.118;2022-07-10T04:41:17;13.00;99.90
8892;DHT22;4482;54.332;10.118;2022-07-10T04:43:45;13.10;99.90
8892;DHT22;4482;54.332;10.118;2022-07-10T04:46:12;13.20;99.90
8892;DHT22;4482;54.332;10.118;2022-07-10T04:48:39;13.30;99.90
8892;DHT22;4482;54.332;10.118;2022-07-10T04:51:06;13.40;99.90
8892;DHT22;4482;54.332;10.118;2022-07-10T04:53:32;13.30;99.90
8892;DHT22;4482;54.332;10.118;2022-07-10T04:55:59;13.30;99.90
8892;DHT22;4482;54.332;10.118;2022-07-10T04:58:27;13.30;99.90
8892;DHT22;4482;54.332;10.118;2022-07-10T05:00:56;13.30;99.90
8892;DHT22;4482;54.332;10.118;2022-07-10T05:03:23;13.50;99.90
8892;DHT22;4482;54.332;10.118;2022-07-10T05:05:49;13.60;99.90
8892;DHT22;4482;54.332;10.118;2022-07-10T05:08:16;13.60;99.90
8892;DHT22;4482;54.332;10.118;2022-07-10T05:10:43;13.60;99.90
8892;DHT22;4482;54.332;10.118;2022-07-10T05:13:10;13.70;99.90
8892;DHT22;4482;54.332;10.118;2022-07-10T05:15:37;13.70;99.90
8892;DHT22;4482;54.332;10.118;2022-07-10T05:18:05;13.70;99.90
8892;DHT22;4482;54.332;10.118;2022-07-10T05:20:32;13.80;99.90
8892;DHT22;4482;54.332;10.118;2022-07-10T05:23:00;13.80;99.90
8892;DHT22;4482;54.332;10.118;2022-07-10T05:25:27;13.90;99.90
8892;DHT22;4482;54.332;10.118;2022-07-10T05:27:56;14.00;99.90
8892;DHT22;4482;54.332;10.118;2022-07-10T05:30:22;14.10;99.90
8892;DHT22;4482;54.332;10.118;2022-07-10T05:32:49;14.00;99.90
8892;DHT22;4482;54.332;10.118;2022-07-10T05:35:17;14.10;99.90
8892;DHT22;4482;54.332;10.118;2022-07-10T05:37:44;13.90;99.90
8892;DHT22;4482;54.332;10.118;2022-07-10T05:40:11;14.00;99.90
8892;DHT22;4482;54.332;10.118;2022-07-10T05:42:38;14.00;99.90
8892;DHT22;4482;54.332;10.118;2022-07-10T05:45:06;14.10;99.90
8892;DHT22;4482;54.332;10.118;2022-07-10T05:47:33;14.10;99.90
8892;DHT22;4482;54.332;10.118;2022-07-10T05:50:00;14.20;99.90
8892;DHT22;4482;54.332;10.118;2022-07-10T05:52:28;14.30;99.90
8892;DHT22;4482;54.332;10.118;2022-07-10T05:54:55;14.30;99.90
8892;DHT22;4482;54.332;10.118;2022-07-10T05:57:23;14.50;99.90
8892;DHT22;4482;54.332;10.118;2022-07-10T05:59:49;14.50;99.90
8892;DHT22;4482;54.332;10.118;2022-07-10T06:02:16;14.60;99.90
8892;DHT22;4482;54.332;10.118;2022-07-10T06:04:43;14.60;99.90
8892;DHT22;4482;54.332;10.118;2022-07-10T06:07:10;14.70;99.90
8892;DHT22;4482;54.332;10.118;2022-07-10T06:09:38;14.60;99.90
8892;DHT22;4482;54.332;10.118;2022-07-10T06:12:05;14.70;99.90
8892;DHT22;4482;54.332;10.118;2022-07-10T06:14:32;14.80;99.90
8892;DHT22;4482;54.332;10.118;2022-07-10T06:16:59;14.90;99.90
8892;DHT22;4482;54.332;10.118;2022-07-10T06:19:26;14.90;99.90
8892;DHT22;4482;54.332;10.118;2022-07-10T06:21:53;14.90;99.90
8892;DHT22;4482;54.332;10.118;2022-07-10T06:24:33;15.10;99.90
8892;DHT22;4482;54.332;10.118;2022-07-10T06:27:02;15.10;99.90
8892;DHT22;4482;54.332;10.118;2022-07-10T06:29:29;15.20;99.90
8892;DHT22;4482;54.332;10.118;2022-07-10T06:31:56;15.40;99.90
8892;DHT22;4482;54.332;10.118;2022-07-10T06:34:22;15.70;99.90
8892;DHT22;4482;54.332;10.118;2022-07-10T06:36:49;15.70;99.90
8892;DHT22;4482;54.332;10.118;2022-07-10T06:39:16;15.70;99.90
8892;DHT22;4482;54.332;10.118;2022-07-10T06:41:43;15.70;99.90
8892;DHT22;4482;54.332;10.118;2022-07-10T06:44:11;15.50;99.90
8892;DHT22;4482;54.332;10.118;2022-07-10T06:46:38;15.30;99.90
8892;DHT22;4482;54.332;10.118;2022-07-10T06:49:05;15.30;99.90
8892;DHT22;4482;54.332;10.118;2022-07-10T06:51:31;15.20;99.90
8892;DHT22;4482;54.332;10.118;2022-07-10T06:53:58;15.30;99.90
8892;DHT22;4482;54.332;10.118;2022-07-10T06:56:25;15.30;99.90
8892;DHT22;4482;54.332;10.118;2022-07-10T06:58:52;15.40;99.90
8892;DHT22;4482;54.332;10.118;2022-07-10T07:01:20;15.50;99.90
8892;DHT22;4482;54.332;10.118;2022-07-10T07:03:47;15.40;99.90
8892;DHT22;4482;54.332;10.118;2022-07-10T07:06:14;15.50;99.90
8892;DHT22;4482;54.332;10.118;2022-07-10T07:08:41;15.60;99.90
8892;DHT22;4482;54.332;10.118;2022-07-10T07:11:08;15.70;99.90
8892;DHT22;4482;54.332;10.118;2022-07-10T07:13:35;16.10;99.90
8892;DHT22;4482;54.332;10.118;2022-07-10T07:16:02;16.50;99.90
8892;DHT22;4482;54.332;10.118;2022-07-10T07:18:33;16.40;99.90
8892;DHT22;4482;54.332;10.118;2022-07-10T07:21:03;16.30;99.90
8892;DHT22;4482;54.332;10.118;2022-07-10T07:23:47;16.30;99.90
8892;DHT22;4482;54.332;10.118;2022-07-10T07:26:14;16.50;99.90
8892;DHT22;4482;54.332;10.118;2022-07-10T07:28:40;16.90;99.90
8892;DHT22;4482;54.332;10.118;2022-07-10T07:31:07;17.30;99.90
8892;DHT22;4482;54.332;10.118;2022-07-10T07:33:35;18.40;99.90
8892;DHT22;4482;54.332;10.118;2022-07-10T07:36:03;20.20;99.90
8892;DHT22;4482;54.332;10.118;2022-07-10T07:38:29;20.40;99.90
8892;DHT22;4482;54.332;10.118;2022-07-10T07:40:56;19.40;99.90
8892;DHT22;4482;54.332;10.118;2022-07-10T07:43:23;18.40;99.90
8892;DHT22;4482;54.332;10.118;2022-07-10T07:45:50;17.80;99.90
8892;DHT22;4482;54.332;10.118;2022-07-10T07:48:17;17.60;99.90
8892;DHT22;4482;54.332;10.118;2022-07-10T07:50:45;17.40;99.90
8892;DHT22;4482;54.332;10.118;2022-07-10T07:53:12;18.30;99.90
8892;DHT22;4482;54.332;10.118;2022-07-10T07:55:39;19.90;99.90
8892;DHT22;4482;54.332;10.118;2022-07-10T07:58:06;21.50;99.90
8892;DHT22;4482;54.332;10.118;2022-07-10T08:00:32;22.40;99.90
8892;DHT22;4482;54.332;10.118;2022-07-10T08:02:59;22.40;99.90
8892;DHT22;4482;54.332;10.118;2022-07-10T08:05:27;22.10;99.90
8892;DHT22;4482;54.332;10.118;2022-07-10T08:07:57;22.80;99.90
8892;DHT22;4482;54.332;10.118;2022-07-10T08:10:26;22.90;99.90
8892;DHT22;4482;54.332;10.118;2022-07-10T08:12:53;22.90;99.90
8892;DHT22;4482;54.332;10.118;2022-07-10T08:15:21;22.60;99.90
8892;DHT22;4482;54.332;10.118;2022-07-10T08:17:49;21.30;99.90
8892;DHT22;4482;54.332;10.118;2022-07-10T08:20:16;21.30;99.90
8892;DHT22;4482;54.332;10.118;2022-07-10T08:22:43;22.90;99.90
8892;DHT22;4482;54.332;10.118;2022-07-10T08:25:12;24.70;99.40
8892;DHT22;4482;54.332;10.118;2022-07-10T08:27:39;25.10;98.30
8892;DHT22;4482;54.332;10.118;2022-07-10T08:30:07;26.10;96.30
8892;DHT22;4482;54.332;10.118;2022-07-10T08:32:35;25.60;96.20
8892;DHT22;4482;54.332;10.118;2022-07-10T08:35:02;23.60;97.70
8892;DHT22;4482;54.332;10.118;2022-07-10T08:37:29;23.00;99.00
8892;DHT22;4482;54.332;10.118;2022-07-10T08:39:56;24.10;98.10
8892;DHT22;4482;54.332;10.118;2022-07-10T08:42:25;25.20;96.60
8892;DHT22;4482;54.332;10.118;2022-07-10T08:44:52;25.80;95.10
8892;DHT22;4482;54.332;10.118;2022-07-10T08:47:23;26.50;93.90
8892;DHT22;4482;54.332;10.118;2022-07-10T08:49:51;27.10;92.90
8892;DHT22;4482;54.332;10.118;2022-07-10T08:52:25;27.30;91.40
8892;DHT22;4482;54.332;10.118;2022-07-10T08:54:53;26.20;91.00
8892;DHT22;4482;54.332;10.118;2022-07-10T08:57:23;24.50;92.10
8892;DHT22;4482;54.332;10.118;2022-07-10T08:59:51;25.10;92.10
8892;DHT22;4482;54.332;10.118;2022-07-10T09:02:19;24.50;92.30
8892;DHT22;4482;54.332;10.118;2022-07-10T09:04:46;23.20;93.90
8892;DHT22;4482;54.332;10.118;2022-07-10T09:07:14;23.40;94.70
8892;DHT22;4482;54.332;10.118;2022-07-10T09:09:53;25.30;93.10
8892;DHT22;4482;54.332;10.118;2022-07-10T09:12:21;26.10;91.60
8892;DHT22;4482;54.332;10.118;2022-07-10T09:14:48;26.60;90.70
8892;DHT22;4482;54.332;10.118;2022-07-10T09:17:17;25.20;91.50
8892;DHT22;4482;54.332;10.118;2022-07-10T09:19:44;22.80;94.00
8892;DHT22;4482;54.332;10.118;2022-07-10T09:22:12;21.50;96.30
8892;DHT22;4482;54.332;10.118;2022-07-10T09:24:42;20.40;98.50
8892;DHT22;4482;54.332;10.118;2022-07-10T09:27:11;20.40;99.90
8892;DHT22;4482;54.332;10.118;2022-07-10T09:29:45;20.00;99.90
8892;DHT22;4482;54.332;10.118;2022-07-10T09:32:13;19.20;99.90
8892;DHT22;4482;54.332;10.118;2022-07-10T09:34:43;18.80;99.90
8892;DHT22;4482;54.332;10.118;2022-07-10T09:37:24;18.70;99.90
8892;DHT22;4482;54.332;10.118;2022-07-10T09:39:57;18.90;99.90
8892;DHT22;4482;54.332;10.118;2022-07-10T09:42:25;19.00;99.90
8892;DHT22;4482;54.332;10.118;2022-07-10T09:44:53;19.00;99.90
8892;DHT22;4482;54.332;10.118;2022-07-10T09:47:22;19.80;99.90
8892;DHT22;4482;54.332;10.118;2022-07-10T09:49:51;19.40;99.90
8892;DHT22;4482;54.332;10.118;2022-07-10T09:52:18;18.90;99.90
8892;DHT22;4482;54.332;10.118;2022-07-10T09:54:46;18.70;99.90
8892;DHT22;4482;54.332;10.118;2022-07-10T09:57:15;19.50;99.90
8892;DHT22;4482;54.332;10.118;2022-07-10T09:59:43;20.40;99.90
8892;DHT22;4482;54.332;10.118;2022-07-10T10:02:11;20.30;99.90
8892;DHT22;4482;54.332;10.118;2022-07-10T10:04:40;21.30;99.90
8892;DHT22;4482;54.332;10.118;2022-07-10T10:07:11;21.70;99.20
8892;DHT22;4482;54.332;10.118;2022-07-10T10:09:41;20.60;99.90
8892;DHT22;4482;54.332;10.118;2022-07-10T10:12:16;19.90;99.90
8892;DHT22;4482;54.332;10.118;2022-07-10T10:14:44;19.70;99.90
8892;DHT22;4482;54.332;10.118;2022-07-10T10:17:12;19.60;99.90
8892;DHT22;4482;54.332;10.118;2022-07-10T10:19:40;20.30;99.90
8892;DHT22;4482;54.332;10.118;2022-07-10T10:22:27;20.00;99.90
8892;DHT22;4482;54.332;10.118;2022-07-10T10:24:55;19.30;99.90
8892;DHT22;4482;54.332;10.118;2022-07-10T10:27:23;19.00;99.90
8892;DHT22;4482;54.332;10.118;2022-07-10T10:29:51;19.10;99.90
8892;DHT22;4482;54.332;10.118;2022-07-10T10:32:19;19.20;99.90
8892;DHT22;4482;54.332;10.118;2022-07-10T10:34:47;19.10;99.90
8892;DHT22;4482;54.332;10.118;2022-07-10T10:37:36;19.60;99.90
8892;DHT22;4482;54.332;10.118;2022-07-10T10:40:04;20.20;99.90
8892;DHT22;4482;54.332;10.118;2022-07-10T10:42:33;20.10;99.90
8892;DHT22;4482;54.332;10.118;2022-07-10T10:45:24;19.90;99.90
8892;DHT22;4482;54.332;10.118;2022-07-10T10:48:00;19.40;99.90
8892;DHT22;4482;54.332;10.118;2022-07-10T10:50:38;18.70;99.90
8892;DHT22;4482;54.332;10.118;2022-07-10T10:53:12;18.40;99.90
8892;DHT22;4482;54.332;10.118;2022-07-10T10:55:39;18.30;99.90
8892;DHT22;4482;54.332;10.118;2022-07-10T10:58:16;18.40;99.90
8892;DHT22;4482;54.332;10.118;2022-07-10T11:00:44;18.70;99.90
8892;DHT22;4482;54.332;10.118;2022-07-10T11:03:19;20.00;99.90
8892;DHT22;4482;54.332;10.118;2022-07-10T11:05:48;23.60;99.90
8892;DHT22;4482;54.332;10.118;2022-07-10T11:08:41;23.80;98.60
8892;DHT22;4482;54.332;10.118;2022-07-10T11:11:37;22.30;99.70
8892;DHT22;4482;54.332;10.118;2022-07-10T11:14:05;20.90;99.90
8892;DHT22;4482;54.332;10.118;2022-07-10T11:16:33;20.60;99.90
8892;DHT22;4482;54.332;10.118;2022-07-10T11:19:01;22.60;99.90
8892;DHT22;4482;54.332;10.118;2022-07-10T11:21:37;24.90;98.50
8892;DHT22;4482;54.332;10.118;2022-07-10T11:24:13;27.10;95.50
8892;DHT22;4482;54.332;10.118;2022-07-10T11:26:52;27.20;92.90
8892;DHT22;4482;54.332;10.118;2022-07-10T11:29:21;25.70;93.30
8892;DHT22;4482;54.332;10.118;2022-07-10T11:31:52;23.90;94.40
8892;DHT22;4482;54.332;10.118;2022-07-10T11:34:19;22.20;96.40
8892;DHT22;4482;54.332;10.118;2022-07-10T11:36:48;21.70;98.00
8892;DHT22;4482;54.332;10.118;2022-07-10T11:39:16;22.50;98.40
8892;DHT22;4482;54.332;10.118;2022-07-10T11:41:44;25.10;95.70
8892;DHT22;4482;54.332;10.118;2022-07-10T11:44:13;26.70;93.60
8892;DHT22;4482;54.332;10.118;2022-07-10T11:46:40;26.20;93.20
8892;DHT22;4482;54.332;10.118;2022-07-10T11:49:09;25.70;93.70
8892;DHT22;4482;54.332;10.118;2022-07-10T11:51:38;25.70;93.30
8892;DHT22;4482;54.332;10.118;2022-07-10T11:54:07;25.10;94.00
8892;DHT22;4482;54.332;10.118;2022-07-10T11:56:38;23.30;95.30
8892;DHT22;4482;54.332;10.118;2022-07-10T11:59:08;21.70;97.70
8892;DHT22;4482;54.332;10.118;2022-07-10T12:01:41;21.50;99.00
8892;DHT22;4482;54.332;10.118;2022-07-10T12:04:08;21.10;98.80
8892;DHT22;4482;54.332;10.118;2022-07-10T12:06:37;20.80;99.00
8892;DHT22;4482;54.332;10.118;2022-07-10T12:09:05;20.60;99.40
8892;DHT22;4482;54.332;10.118;2022-07-10T12:11:32;20.40;99.50
8892;DHT22;4482;54.332;10.118;2022-07-10T12:14:14;20.40;99.90
8892;DHT22;4482;54.332;10.118;2022-07-10T12:16:43;19.80;99.90
8892;DHT22;4482;54.332;10.118;2022-07-10T12:19:12;19.40;99.90
8892;DHT22;4482;54.332;10.118;2022-07-10T12:21:40;19.00;99.90
8892;DHT22;4482;54.332;10.118;2022-07-10T12:24:08;18.70;99.90
8892;DHT22;4482;54.332;10.118;2022-07-10T12:26:37;18.70;99.90
8892;DHT22;4482;54.332;10.118;2022-07-10T12:29:04;18.70;99.90
8892;DHT22;4482;54.332;10.118;2022-07-10T12:31:34;18.90;99.90
8892;DHT22;4482;54.332;10.118;2022-07-10T12:34:05;19.00;99.90
8892;DHT22;4482;54.332;10.118;2022-07-10T12:36:47;19.10;99.90
8892;DHT22;4482;54.332;10.118;2022-07-10T12:39:16;19.10;99.90
8892;DHT22;4482;54.332;10.118;2022-07-10T12:41:56;18.90;99.90
8892;DHT22;4482;54.332;10.118;2022-07-10T12:44:34;18.70;99.90
8892;DHT22;4482;54.332;10.118;2022-07-10T12:47:04;18.70;99.90
8892;DHT22;4482;54.332;10.118;2022-07-10T12:49:48;18.80;99.90
8892;DHT22;4482;54.332;10.118;2022-07-10T12:52:20;18.70;99.90
8892;DHT22;4482;54.332;10.118;2022-07-10T12:54:47;18.80;99.90
8892;DHT22;4482;54.332;10.118;2022-07-10T12:57:14;18.70;99.90
8892;DHT22;4482;54.332;10.118;2022-07-10T12:59:40;18.70;99.90
8892;DHT22;4482;54.332;10.118;2022-07-10T13:02:19;18.80;99.90
8892;DHT22;4482;54.332;10.118;2022-07-10T13:04:53;19.20;99.90
8892;DHT22;4482;54.332;10.118;2022-07-10T13:07:20;19.30;99.90
8892;DHT22;4482;54.332;10.118;2022-07-10T13:09:54;19.30;99.90
8892;DHT22;4482;54.332;10.118;2022-07-10T13:12:21;19.10;99.90
8892;DHT22;4482;54.332;10.118;2022-07-10T13:14:48;19.10;99.90
8892;DHT22;4482;54.332;10.118;2022-07-10T13:17:17;19.20;99.90
8892;DHT22;4482;54.332;10.118;2022-07-10T13:19:45;19.30;99.90
8892;DHT22;4482;54.332;10.118;2022-07-10T13:22:12;19.40;99.90
8892;DHT22;4482;54.332;10.118;2022-07-10T13:24:38;19.30;99.90
8892;DHT22;4482;54.332;10.118;2022-07-10T13:27:06;19.30;99.90
8892;DHT22;4482;54.332;10.118;2022-07-10T13:29:33;19.30;99.90
8892;DHT22;4482;54.332;10.118;2022-07-10T13:32:00;19.30;99.90
8892;DHT22;4482;54.332;10.118;2022-07-10T13:34:28;19.10;99.90
8892;DHT22;4482;54.332;10.118;2022-07-10T13:36:55;19.00;99.90
8892;DHT22;4482;54.332;10.118;2022-07-10T13:39:22;19.30;99.90
8892;DHT22;4482;54.332;10.118;2022-07-10T13:41:50;19.30;99.90
8892;DHT22;4482;54.332;10.118;2022-07-10T13:44:17;19.10;99.90
8892;DHT22;4482;54.332;10.118;2022-07-10T13:46:45;19.10;99.90
8892;DHT22;4482;54.332;10.118;2022-07-10T13:49:11;19.00;99.90
8892;DHT22;4482;54.332;10.118;2022-07-10T13:51:40;19.10;99.90
8892;DHT22;4482;54.332;10.118;2022-07-10T13:54:06;19.30;99.90
8892;DHT22;4482;54.332;10.118;2022-07-10T13:56:33;19.30;99.90
8892;DHT22;4482;54.332;10.118;2022-07-10T13:59:00;19.30;99.90
8892;DHT22;4482;54.332;10.118;2022-07-10T14:01:28;19.30;99.90
8892;DHT22;4482;54.332;10.118;2022-07-10T14:03:55;19.40;99.90
8892;DHT22;4482;54.332;10.118;2022-07-10T14:06:22;19.50;99.90
8892;DHT22;4482;54.332;10.118;2022-07-10T14:08:50;19.80;99.90
8892;DHT22;4482;54.332;10.118;2022-07-10T14:11:17;20.00;99.90
8892;DHT22;4482;54.332;10.118;2022-07-10T14:13:44;20.10;99.90
8892;DHT22;4482;54.332;10.118;2022-07-10T14:16:11;20.00;99.90
8892;DHT22;4482;54.332;10.118;2022-07-10T14:18:38;19.90;99.90
8892;DHT22;4482;54.332;10.118;2022-07-10T14:21:07;19.80;99.90
8892;DHT22;4482;54.332;10.118;2022-07-10T14:23:36;19.60;99.90
8892;DHT22;4482;54.332;10.118;2022-07-10T14:26:05;19.60;99.90
8892;DHT22;4482;54.332;10.118;2022-07-10T14:28:32;19.40;99.90
8892;DHT22;4482;54.332;10.118;2022-07-10T14:31:01;19.10;99.90
8892;DHT22;4482;54.332;10.118;2022-07-10T14:33:29;18.90;99.90
8892;DHT22;4482;54.332;10.118;2022-07-10T14:35:56;18.70;99.90
8892;DHT22;4482;54.332;10.118;2022-07-10T14:38:23;18.70;99.90
8892;DHT22;4482;54.332;10.118;2022-07-10T14:40:50;18.80;99.90
8892;DHT22;4482;54.332;10.118;2022-07-10T14:43:20;18.80;99.90
8892;DHT22;4482;54.332;10.118;2022-07-10T14:45:46;18.90;99.90
8892;DHT22;4482;54.332;10.118;2022-07-10T14:48:13;19.00;99.90
8892;DHT22;4482;54.332;10.118;2022-07-10T14:50:40;18.80;99.90
8892;DHT22;4482;54.332;10.118;2022-07-10T14:53:08;18.80;99.90
8892;DHT22;4482;54.332;10.118;2022-07-10T14:55:36;18.70;99.90
8892;DHT22;4482;54.332;10.118;2022-07-10T14:58:03;18.70;99.90
8892;DHT22;4482;54.332;10.118;2022-07-10T15:00:31;18.70;99.90
8892;DHT22;4482;54.332;10.118;2022-07-10T15:02:59;18.70;99.90
8892;DHT22;4482;54.332;10.118;2022-07-10T15:05:26;18.80;99.90
8892;DHT22;4482;54.332;10.118;2022-07-10T15:07:53;18.80;99.90
8892;DHT22;4482;54.332;10.118;2022-07-10T15:10:20;18.90;99.90
8892;DHT22;4482;54.332;10.118;2022-07-10T15:12:46;19.00;99.90
8892;DHT22;4482;54.332;10.118;2022-07-10T15:15:13;19.10;99.90
8892;DHT22;4482;54.332;10.118;2022-07-10T15:17:42;19.00;99.90
8892;DHT22;4482;54.332;10.118;2022-07-10T15:20:10;19.10;99.90
8892;DHT22;4482;54.332;10.118;2022-07-10T15:22:38;19.10;99.90
8892;DHT22;4482;54.332;10.118;2022-07-10T15:25:05;19.10;99.90
8892;DHT22;4482;54.332;10.118;2022-07-10T15:27:32;19.20;99.90
8892;DHT22;4482;54.332;10.118;2022-07-10T15:29:59;19.10;99.90
8892;DHT22;4482;54.332;10.118;2022-07-10T15:32:26;19.20;99.90
8892;DHT22;4482;54.332;10.118;2022-07-10T15:34:54;19.10;99.90
8892;DHT22;4482;54.332;10.118;2022-07-10T15:37:21;18.90;99.90
8892;DHT22;4482;54.332;10.118;2022-07-10T15:39:48;18.90;99.90
8892;DHT22;4482;54.332;10.118;2022-07-10T15:42:15;18.80;99.90
8892;DHT22;4482;54.332;10.118;2022-07-10T15:44:42;18.70;99.90
8892;DHT22;4482;54.332;10.118;2022-07-10T15:47:09;18.60;99.90
8892;DHT22;4482;54.332;10.118;2022-07-10T15:49:37;18.50;99.90
8892;DHT22;4482;54.332;10.118;2022-07-10T15:52:05;18.40;99.90